Time;durP1;ratioP1;P1;durP2;ratioP2;P2;SDS_P1;SDS_P2;PMS_P1;PMS_P2;Temp;Humidity;BMP_temperature;BMP_pressure;BME280_temperature;BME280_humidity;BME280_pressure;Samples;Min_cycle;Max_cycle;Signal;HPM_P1;HPM_P2
2022/05/28 00:02:19;;;;;;;0.35;0.20;;;;;;;20.63;36.62;102202.56;16134631;19;130028;-43
2022/05/28 00:07:41;;;;;;;0.80;0.40;;;;;;;20.62;36.83;102198.09;16133548;19;130644;-40
2022/05/28 00:13:03;;;;;;;1.13;0.40;;;;;;;20.60;36.86;102193.59;16140217;19;130931;-42
2022/05/28 00:18:25;;;;;;;0.98;0.50;;;;;;;20.59;36.69;102191.91;16136654;19;129694;-41
2022/05/28 00:23:48;;;;;;;1.27;0.47;;;;;;;20.58;36.66;102190.19;16124628;19;131384;-41
2022/05/28 00:29:10;;;;;;;1.80;0.40;;;;;;;20.56;37.08;102192.34;16131262;19;130124;-44
2022/05/28 00:34:32;;;;;;;0.63;0.40;;;;;;;20.56;36.59;102185.94;16133376;19;130887;-46
2022/05/28 00:39:54;;;;;;;1.20;0.30;;;;;;;20.55;36.80;102190.69;16129455;19;130492;-41
2022/05/28 00:45:16;;;;;;;1.10;0.30;;;;;;;20.53;36.89;102178.94;16132907;19;130435;-40
2022/05/28 00:50:39;;;;;;;0.93;0.32;;;;;;;20.53;36.94;102178.06;16130904;19;129999;-43
2022/05/28 00:56:05;;;;;;;0.82;0.43;;;;;;;20.51;37.11;102183.84;16125238;19;130406;-40
2022/05/28 01:01:30;;;;;;;1.13;0.40;;;;;;;20.50;37.00;102182.16;16127013;19;131383;-43
2022/05/28 01:07:15;;;;;;;1.15;0.40;;;;;;;20.50;37.17;102176.59;16131863;19;129295;-40
2022/05/28 01:12:39;;;;;;;1.58;0.40;;;;;;;20.49;37.01;102174.06;16131811;19;131062;-43
2022/05/28 01:18:42;;;;;;;3.53;0.60;;;;;;;20.47;36.83;102165.94;16125996;19;129508;-45
2022/05/28 01:24:10;;;;;;;2.55;0.50;;;;;;;20.45;37.07;102159.75;16124072;19;130336;-41
2022/05/28 01:29:41;;;;;;;1.65;0.75;;;;;;;20.44;37.06;102161.69;16125950;19;129376;-45
2022/05/28 01:35:09;;;;;;;0.82;0.40;;;;;;;20.44;37.29;102160.81;16130436;19;130411;-42
2022/05/28 01:40:32;;;;;;;1.70;0.60;;;;;;;20.42;37.09;102157.44;16140902;19;130039;-45
2022/05/28 01:45:55;;;;;;;2.03;0.60;;;;;;;20.41;36.92;102145.47;16144102;19;129703;-40
2022/05/28 01:51:20;;;;;;;1.20;0.43;;;;;;;20.40;36.96;102149.31;16143288;19;130277;-45
2022/05/28 01:56:45;;;;;;;2.00;0.60;;;;;;;20.40;37.19;102154.03;16144639;19;129984;-42
2022/05/28 02:02:10;;;;;;;;;;;;;;;20.35;37.40;102151.06;16143802;19;130771;-44
2022/05/28 02:07:32;;;;;;;1.85;0.45;;;;;;;20.38;37.03;102153.41;16144931;19;130974;-43
2022/05/28 02:13:10;;;;;;;1.05;0.50;;;;;;;20.37;36.98;102154.47;16143748;19;130635;-40
2022/05/28 02:18:44;;;;;;;1.33;0.50;;;;;;;20.35;37.18;102142.75;16137660;19;129549;-43
2022/05/28 02:24:39;;;;;;;0.85;0.40;;;;;;;20.34;37.20;102143.81;16142298;19;130604;-40
2022/05/28 02:30:01;;;;;;;0.70;0.40;;;;;;;20.33;37.42;102144.88;16140922;19;129758;-44
2022/05/28 02:35:23;;;;;;;0.75;0.40;;;;;;;20.33;37.46;102136.56;16140711;19;130589;-40
2022/05/28 02:40:44;;;;;;;1.00;0.50;;;;;;;20.32;37.44;102141.28;16135589;19;129990;-41
2022/05/28 02:46:08;;;;;;;3.00;0.30;;;;;;;20.31;37.26;102134.00;16138924;19;130057;-40
2022/05/28 02:51:30;;;;;;;0.73;0.30;;;;;;;20.30;37.07;102126.75;16139467;19;130801;-42
2022/05/28 02:56:52;;;;;;;1.58;0.47;;;;;;;20.31;37.11;102133.19;16134923;19;130706;-45
2022/05/28 03:02:14;;;;;;;1.50;0.63;;;;;;;20.29;37.10;102131.47;16139346;19;130253;-45
2022/05/28 03:07:35;;;;;;;1.52;0.50;;;;;;;20.27;37.28;102133.63;16140420;19;130373;-42
2022/05/28 03:12:57;;;;;;;0.60;0.30;;;;;;;20.26;37.23;102137.47;16137969;19;129845;-41
2022/05/28 03:18:19;;;;;;;0.73;0.30;;;;;;;20.25;37.24;102124.66;16136142;19;130343;-41
2022/05/28 03:23:41;;;;;;;2.72;0.60;;;;;;;20.23;37.33;102132.38;16139886;19;129684;-40
2022/05/28 03:29:04;;;;;;;0.80;0.47;;;;;;;20.23;37.27;102137.94;16137848;19;131219;-41
2022/05/28 03:34:26;;;;;;;1.00;0.30;;;;;;;20.22;37.44;102130.66;16136275;19;130289;-41
2022/05/28 03:39:48;;;;;;;1.15;0.57;;;;;;;20.23;37.38;102139.88;16134421;19;129642;-41
2022/05/28 03:45:10;;;;;;;0.77;0.43;;;;;;;20.21;37.39;102134.53;16137500;19;130168;-40
2022/05/28 03:50:32;;;;;;;1.92;0.65;;;;;;;20.21;37.43;102131.75;16134175;19;130177;-42
2022/05/28 03:55:54;;;;;;;1.95;0.60;;;;;;;20.18;37.60;102137.78;16136024;19;129955;-43
2022/05/28 04:01:16;;;;;;;1.67;0.57;;;;;;;20.19;37.16;102135.84;16128941;19;132228;-41
2022/05/28 04:06:38;;;;;;;1.73;0.40;;;;;;;20.18;37.49;102135.00;16134677;19;130204;-42
2022/05/28 04:12:00;;;;;;;1.63;0.52;;;;;;;20.19;37.40;102144.19;16134926;19;131691;-40
2022/05/28 04:17:23;;;;;;;1.63;0.60;;;;;;;20.18;37.49;102135.00;16129427;19;129850;-40
2022/05/28 04:22:44;;;;;;;2.58;0.40;;;;;;;20.19;37.25;102141.41;16133266;19;129762;-42
2022/05/28 04:28:08;;;;;;;1.88;0.70;;;;;;;20.18;37.65;102135.00;16134231;19;130673;-40
2022/05/28 04:33:30;;;;;;;0.68;0.35;;;;;;;20.18;37.40;102145.25;16131832;19;129621;-43
2022/05/28 04:38:51;;;;;;;1.98;0.50;;;;;;;20.16;37.64;102148.25;16132339;19;129728;-41
2022/05/28 04:44:13;;;;;;;1.23;0.40;;;;;;;20.16;37.66;102142.72;16131829;19;129797;-44
2022/05/28 04:49:35;;;;;;;0.90;0.68;;;;;;;20.14;37.46;102144.84;16128400;19;129726;-40
2022/05/28 04:54:57;;;;;;;1.13;0.50;;;;;;;20.14;37.35;102148.47;16126000;19;130784;-45
2022/05/28 05:00:21;;;;;;;1.50;0.57;;;;;;;20.15;37.66;102160.44;16129478;19;130350;-42
2022/05/28 05:05:43;;;;;;;3.60;0.60;;;;;;;20.16;37.29;102153.81;16131169;19;129551;-44
2022/05/28 05:11:05;;;;;;;1.40;0.55;;;;;;;20.15;37.30;102157.69;16129526;19;129881;-40
2022/05/28 05:16:27;;;;;;;1.83;0.50;;;;;;;20.14;37.68;102156.81;16128522;19;130324;-42
2022/05/28 05:21:49;;;;;;;1.45;0.45;;;;;;;20.14;37.76;102165.16;16126071;19;129724;-41
2022/05/28 05:27:10;;;;;;;1.50;0.70;;;;;;;20.14;37.55;102161.53;16126223;19;129791;-40
2022/05/28 05:32:32;;;;;;;1.15;0.45;;;;;;;20.14;37.49;102165.16;16128208;19;130526;-40
2022/05/28 05:37:54;;;;;;;0.80;0.40;;;;;;;20.14;37.28;102155.97;16127603;19;130954;-42
2022/05/28 05:43:16;;;;;;;1.20;0.38;;;;;;;20.14;37.38;102167.09;16128924;19;129302;-40
2022/05/28 05:48:37;;;;;;;1.88;0.60;;;;;;;20.14;37.76;102173.47;16124762;19;129735;-40
2022/05/28 05:53:59;;;;;;;1.98;0.50;;;;;;;20.15;37.33;102179.91;16130126;19;130434;-41
2022/05/28 05:59:22;;;;;;;1.20;0.55;;;;;;;20.13;37.50;102174.56;16126198;19;129136;-41
2022/05/28 06:04:44;;;;;;;4.20;0.60;;;;;;;20.13;37.37;102176.50;16128203;19;129805;-40
2022/05/28 06:10:11;;;;;;;2.10;0.50;;;;;;;20.14;37.50;102180.97;16130460;19;130320;-45
2022/05/28 06:15:32;;;;;;;1.48;0.55;;;;;;;20.11;37.52;102181.41;16129208;19;129675;-41
2022/05/28 06:20:55;;;;;;;1.73;0.57;;;;;;;20.11;37.42;102189.75;16123580;19;130213;-43
2022/05/28 06:26:17;;;;;;;2.25;0.60;;;;;;;20.09;37.22;102186.34;16146144;19;129720;-40
2022/05/28 06:31:39;;;;;;;2.38;0.65;;;;;;;20.09;37.64;102186.34;16139771;19;130233;-43
2022/05/28 06:37:01;;;;;;;0.80;0.50;;;;;;;20.09;37.39;102186.34;16141772;19;130112;-41
2022/05/28 06:42:23;;;;;;;2.10;0.85;;;;;;;20.09;37.17;102195.56;16134224;19;129548;-45
2022/05/28 06:47:45;;;;;;;1.77;0.52;;;;;;;20.07;37.32;102183.81;16141218;19;130276;-43
2022/05/28 06:53:08;;;;;;;3.17;0.60;;;;;;;20.07;37.07;102194.06;16129440;19;129758;-42
2022/05/28 06:58:30;;;;;;;2.85;0.75;;;;;;;20.08;37.01;102201.31;16131028;19;130488;-42
2022/05/28 07:03:51;;;;;;;5.25;1.10;;;;;;;20.11;37.15;102206.44;16133627;19;129703;-41
2022/05/28 07:09:13;;;;;;;4.90;0.98;;;;;;;20.14;37.18;102201.25;16134007;19;129803;-43
2022/05/28 07:14:35;;;;;;;4.57;1.13;;;;;;;20.21;37.16;102201.22;16136493;19;129944;-45
2022/05/28 07:19:57;;;;;;;6.63;0.80;;;;;;;20.24;37.08;102206.31;16135873;19;130178;-41
2022/05/28 07:25:21;;;;;;;8.30;1.25;;;;;;;20.32;37.23;102205.19;16138662;19;129535;-40
2022/05/28 07:30:43;;;;;;;5.03;0.73;;;;;;;20.38;36.68;102197.88;16132598;19;130681;-40
2022/05/28 07:36:08;;;;;;;4.45;1.25;;;;;;;20.41;36.28;102205.78;16134376;19;129758;-42
2022/05/28 07:41:32;;;;;;;2.28;0.60;;;;;;;20.46;36.88;102200.34;16133080;19;129953;-41
2022/05/28 07:46:54;;;;;;;3.45;0.65;;;;;;;20.52;36.54;102196.69;16134383;19;129285;-41
2022/05/28 07:52:17;;;;;;;2.38;0.40;;;;;;;20.56;36.50;102195.13;16134569;19;129882;-43
2022/05/28 07:57:38;;;;;;;2.53;0.60;;;;;;;20.62;36.22;102192.53;16133848;19;129345;-42
2022/05/28 08:03:00;;;;;;;3.67;0.55;;;;;;;20.66;36.18;102189.06;16128962;19;129802;-40
2022/05/28 08:08:25;;;;;;;3.75;0.63;;;;;;;20.72;35.81;102195.63;16136644;19;129125;-43
2022/05/28 08:13:47;;;;;;;5.03;0.80;;;;;;;20.70;35.83;102183.88;16141159;19;129050;-41
2022/05/28 08:19:08;;;;;;;4.30;1.25;;;;;;;20.68;35.77;102183.25;16132650;19;129746;-41
2022/05/28 08:24:30;;;;;;;4.97;1.27;;;;;;;20.65;35.70;102184.56;16141032;19;129487;-40
2022/05/28 08:29:52;;;;;;;10.75;1.25;;;;;;;20.63;35.69;102191.44;16138129;19;129797;-42
2022/05/28 08:35:13;;;;;;;11.90;1.20;;;;;;;20.58;35.18;102190.19;16136830;19;129541;-42
2022/05/28 08:40:43;;;;;;;6.28;0.90;;;;;;;20.62;35.59;102189.75;16138498;19;129836;-40
2022/05/28 08:46:10;;;;;;;8.90;1.00;;;;;;;20.60;35.05;102187.19;16132910;19;130261;-42
2022/05/28 08:51:49;;;;;;;7.43;0.90;;;;;;;20.60;35.04;102188.03;16137783;19;130372;-40
2022/05/28 08:57:20;;;;;;;5.03;0.80;;;;;;;20.62;34.86;102189.75;16139642;19;129335;-39
2022/05/28 09:02:49;;;;;;;3.67;0.73;;;;;;;20.64;34.98;102188.44;16132552;19;129400;-39
2022/05/28 09:08:11;;;;;;;3.15;0.85;;;;;;;20.66;34.89;102185.44;16138876;19;129558;-39
2022/05/28 09:13:51;;;;;;;10.77;0.95;;;;;;;20.69;34.68;102191.38;16140019;19;130274;-42
2022/05/28 09:19:20;;;;;;;7.75;0.82;;;;;;;20.73;34.44;102180.63;16135537;19;129409;-41
2022/05/28 09:24:42;;;;;;;3.95;0.70;;;;;;;20.75;34.28;102178.47;16135991;19;130163;-43
2022/05/28 09:30:44;;;;;;;4.10;1.02;;;;;;;20.78;34.03;102183.63;16129627;19;129676;-40
2022/05/28 09:36:21;;;;;;;5.20;0.82;;;;;;;20.74;33.99;102174.00;16137604;19;129771;-41
2022/05/28 09:41:42;;;;;;;5.13;0.82;;;;;;;20.72;34.12;102168.69;16131277;19;131316;-41
2022/05/28 09:47:13;;;;;;;3.25;0.68;;;;;;;20.77;33.88;102170.78;16134835;19;129974;-41
2022/05/28 09:54:16;;;;;;;5.82;0.70;;;;;;;20.75;33.71;102168.22;16134709;19;129369;-43
2022/05/28 09:58:21;;;;;;;5.32;1.13;;;;;;;20.72;33.52;102182.59;16140551;19;129545;-42
2022/05/28 10:09:29;;;;;;;3.00;0.60;;;;;;;20.69;33.54;102169.13;16149462;19;129842;-43
2022/05/28 10:15:18;;;;;;;1.55;0.45;;;;;;;20.71;33.20;102158.63;16150397;19;130624;-38
2022/05/28 10:20:39;;;;;;;3.10;0.80;;;;;;;20.69;33.16;102168.25;16142227;19;129242;-42
2022/05/28 10:26:02;;;;;;;3.95;0.60;;;;;;;20.69;33.06;102154.38;16144776;19;129864;-45
2022/05/28 10:31:34;;;;;;;5.10;0.38;;;;;;;20.69;33.32;102157.16;16142709;19;129158;-40
2022/05/28 10:37:16;;;;;;;2.17;0.60;;;;;;;20.67;32.79;102160.16;16142174;19;129739;-40
2022/05/28 10:42:39;;;;;;;3.72;0.63;;;;;;;20.67;33.13;102151.81;16142517;19;129377;-41
2022/05/28 10:48:05;;;;;;;2.35;0.52;;;;;;;20.73;33.17;102152.84;16143992;19;130008;-43
2022/05/28 10:53:52;;;;;;;4.03;0.60;;;;;;;20.74;33.31;102152.59;16145292;19;129282;-45
2022/05/28 10:59:44;;;;;;;5.28;0.60;;;;;;;20.71;32.96;102146.66;16145829;19;130427;-42
2022/05/28 11:05:05;;;;;;;2.33;0.60;;;;;;;20.70;33.11;102145.81;16139149;19;131323;-43
2022/05/28 11:11:03;;;;;;;2.83;0.50;;;;;;;20.71;32.87;102152.22;16142718;19;129322;-41
2022/05/28 11:16:47;;;;;;;2.58;0.73;;;;;;;20.67;33.31;102137.09;16145448;19;130803;-41
2022/05/28 11:22:33;;;;;;;2.28;0.55;;;;;;;20.65;32.88;102145.63;16142730;19;130704;-42
2022/05/28 11:27:55;;;;;;;4.15;0.70;;;;;;;20.64;32.97;102140.31;16141215;19;131707;-40
2022/05/28 11:33:25;;;;;;;1.42;0.30;;;;;;;20.64;32.83;102143.09;16144257;19;129170;-42
2022/05/28 11:39:02;;;;;;;3.15;0.52;;;;;;;20.63;33.14;102135.84;16143099;19;129908;-40
2022/05/28 11:44:35;;;;;;;2.45;0.63;;;;;;;20.63;33.02;102131.09;16144569;19;130181;-43
2022/05/28 11:56:12;;;;;;;1.25;0.30;;;;;;;20.63;32.34;102119.16;16142822;19;129674;-44
2022/05/28 12:01:46;;;;;;;3.67;0.50;;;;;;;20.60;32.74;102114.91;16137204;19;129495;-42
2022/05/28 12:07:10;;;;;;;2.42;0.50;;;;;;;20.60;32.54;102109.34;16131708;19;129369;-43
2022/05/28 12:12:50;;;;;;;1.35;0.40;;;;;;;20.60;32.45;102103.78;16142908;19;129569;-44
2022/05/28 12:18:14;;;;;;;1.70;0.25;;;;;;;20.59;32.59;102100.16;16137198;19;129073;-41
2022/05/28 12:23:41;;;;;;;3.90;0.40;;;;;;;20.56;32.36;102100.59;16134892;19;130092;-42
2022/05/28 12:29:05;;;;;;;2.42;0.50;;;;;;;20.56;32.20;102095.03;16139524;19;129960;-40
2022/05/28 12:34:28;;;;;;;3.80;0.80;;;;;;;20.54;32.63;102088.88;16140787;19;129920;-41
2022/05/28 12:40:04;;;;;;;2.85;0.50;;;;;;;20.53;32.30;102084.41;16136656;19;129446;-42
2022/05/28 12:45:39;;;;;;;3.65;0.68;;;;;;;20.53;31.88;102069.63;16139855;19;130145;-41
2022/05/28 12:51:03;;;;;;;2.28;0.50;;;;;;;20.51;32.54;102071.78;16135008;19;129529;-43
2022/05/28 12:56:33;;;;;;;2.75;0.43;;;;;;;20.49;32.31;102079.53;16137597;19;130106;-45
2022/05/28 13:02:18;;;;;;;2.53;0.45;;;;;;;20.50;31.74;102065.41;16129943;19;129620;-42
2022/05/28 13:07:39;;;;;;;1.55;0.32;;;;;;;20.47;32.31;102059.47;16139478;19;129422;-41
2022/05/28 13:13:41;;;;;;;1.75;0.43;;;;;;;20.50;31.71;102054.28;16137720;19;130082;-44
2022/05/28 13:20:00;;;;;;;3.20;0.57;;;;;;;20.47;31.66;102059.47;16131579;19;129388;-41
2022/05/28 13:25:40;;;;;;;2.75;0.40;;;;;;;20.45;31.81;102051.34;16131102;19;130340;-40
2022/05/28 13:31:05;;;;;;;0.88;0.40;;;;;;;20.44;31.75;102041.28;16137275;19;130579;-41
2022/05/28 13:36:29;;;;;;;;;;;;;;;20.40;31.41;102040.06;16148152;19;129574;-43
2022/05/28 13:41:52;;;;;;;2.10;0.52;;;;;;;20.43;31.47;102039.63;16137903;19;130956;-43
2022/05/28 13:47:18;;;;;;;1.52;0.30;;;;;;;20.42;31.41;102044.31;16146704;19;130400;-45
2022/05/28 13:52:44;;;;;;;;;;;;;;;20.40;31.38;102045.63;16148378;19;129274;-42
2022/05/28 13:58:21;;;;;;;3.13;0.70;;;;;;;20.44;31.50;102038.50;16147256;19;129416;-40
2022/05/28 14:03:42;;;;;;;3.60;0.68;;;;;;;20.41;31.20;102036.22;16146133;19;129583;-40
2022/05/28 14:09:05;;;;;;;1.88;0.63;;;;;;;20.40;31.36;102032.56;16148126;19;131520;-44
2022/05/28 14:14:28;;;;;;;2.42;0.65;;;;;;;20.40;31.38;102037.31;16148445;19;130491;-40
2022/05/28 14:19:58;;;;;;;3.92;0.98;;;;;;;20.41;30.75;102027.88;16144307;19;129454;-45
2022/05/28 14:25:32;;;;;;;5.80;0.77;;;;;;;20.41;30.42;102039.00;16148262;19;129818;-42
2022/05/28 14:30:55;;;;;;;2.55;0.50;;;;;;;20.39;30.64;102039.22;16148220;19;129975;-43
2022/05/28 14:36:37;;;;;;;4.65;1.08;;;;;;;20.38;30.52;102040.28;16146108;19;129778;-39
2022/05/28 14:42:06;;;;;;;4.15;1.00;;;;;;;20.36;30.87;102039.69;16142309;19;130418;-44
2022/05/28 14:47:28;;;;;;;3.47;0.65;;;;;;;20.36;30.39;102041.59;16136989;19;130647;-41
2022/05/28 14:52:50;;;;;;;3.05;0.70;;;;;;;20.35;30.67;102040.78;16148691;19;129412;-42
2022/05/28 14:58:21;;;;;;;1.80;0.35;;;;;;;20.36;30.62;102030.50;16145442;19;131156;-40
2022/05/28 15:03:42;;;;;;;4.32;0.70;;;;;;;20.35;30.55;102034.34;16142951;19;129357;-41
2022/05/28 15:09:04;;;;;;;2.35;0.50;;;;;;;20.35;30.43;102026.00;16145513;19;129468;-40
2022/05/28 15:14:27;;;;;;;3.83;0.70;;;;;;;20.33;30.25;102030.94;16143599;19;129783;-42
2022/05/28 15:19:52;;;;;;;4.20;0.60;;;;;;;20.29;30.51;102034.22;16141187;19;130447;-42
2022/05/28 15:25:20;;;;;;;2.33;0.50;;;;;;;20.31;30.32;102033.13;16145937;19;129138;-44
2022/05/28 15:30:42;;;;;;;4.95;1.08;;;;;;;20.28;30.43;102013.06;16146102;19;129468;-42
2022/05/28 15:41:46;;;;;;;3.55;0.90;;;;;;;20.29;30.65;102011.97;16139663;19;129444;-41
2022/05/28 15:47:07;;;;;;;5.72;1.10;;;;;;;20.31;30.66;102005.34;16138597;19;129449;-45
2022/05/28 15:52:29;;;;;;;5.68;0.88;;;;;;;20.27;30.67;102008.56;16139984;19;130236;-41
2022/05/28 15:57:56;;;;;;;9.30;1.13;;;;;;;20.27;30.87;102016.06;16131676;19;129293;-47
2022/05/28 16:03:18;;;;;;;11.90;1.13;;;;;;;20.29;31.09;102013.91;16139285;19;129232;-43
2022/05/28 16:08:40;;;;;;;4.28;0.80;;;;;;;20.35;30.90;102009.34;16141268;19;129194;-44
2022/05/28 16:14:05;;;;;;;9.15;1.27;;;;;;;20.37;30.67;101999.69;16142267;19;129636;-42
2022/05/28 16:19:28;;;;;;;8.63;0.90;;;;;;;20.40;30.45;101998.38;16138875;19;129652;-42
2022/05/28 16:24:49;;;;;;;5.68;1.05;;;;;;;20.41;30.83;102011.22;16136972;19;129908;-41
2022/05/28 16:30:16;;;;;;;6.35;0.80;;;;;;;20.44;30.43;101999.59;16140149;19;130461;-45
2022/05/28 16:35:38;;;;;;;5.30;1.38;;;;;;;20.46;30.96;101994.66;16132182;19;129594;-47
2022/05/28 16:41:00;;;;;;;9.07;0.90;;;;;;;20.48;30.18;101992.50;16136235;19;129014;-46
2022/05/28 16:46:22;;;;;;;6.38;1.10;;;;;;;20.49;30.16;101996.97;16140244;19;129300;-43
2022/05/28 16:51:44;;;;;;;3.50;0.75;;;;;;;20.50;29.95;101995.91;16135645;19;129505;-47
2022/05/28 16:57:07;;;;;;;6.55;1.02;;;;;;;20.52;30.35;101996.53;16131899;19;130020;-41
2022/05/28 17:02:29;;;;;;;5.05;0.80;;;;;;;20.55;30.09;102001.63;16133466;19;129752;-42
2022/05/28 17:07:50;;;;;;;2.38;0.50;;;;;;;20.57;30.19;101993.03;16130625;19;131634;-45
2022/05/28 17:13:17;;;;;;;1.90;0.57;;;;;;;20.58;29.71;101981.66;16135394;19;129580;-45
2022/05/28 17:18:39;;;;;;;34.20;2.22;;;;;;;20.59;29.69;101997.28;16125597;19;130331;-46
2022/05/28 17:24:03;;;;;;;17.58;1.42;;;;;;;20.62;30.08;101992.34;16132760;19;129584;-44
2022/05/28 17:29:30;;;;;;;9.65;1.30;;;;;;;20.63;29.77;101982.91;16135327;19;130396;-45
2022/05/28 17:34:54;;;;;;;10.90;0.88;;;;;;;20.62;29.61;101990.38;16138768;19;130572;-42
2022/05/28 17:40:18;;;;;;;6.95;0.70;;;;;;;20.62;29.72;101986.78;16134663;19;129307;-43
2022/05/28 17:45:40;;;;;;;9.20;1.05;;;;;;;20.59;30.00;101986.16;16128310;19;130526;-42
2022/05/28 17:51:03;;;;;;;5.28;0.80;;;;;;;20.55;29.56;101996.06;16132290;19;130475;-47
2022/05/28 17:56:26;;;;;;;2.97;1.00;;;;;;;20.52;29.96;101990.97;16136269;19;129389;-44
2022/05/28 18:01:47;;;;;;;4.38;0.93;;;;;;;20.51;30.07;101982.84;16128841;19;129504;-45
2022/05/28 18:07:10;;;;;;;5.03;1.10;;;;;;;20.49;30.21;101985.88;16129750;19;129373;-43
2022/05/28 18:12:31;;;;;;;5.68;0.90;;;;;;;20.48;30.34;101973.03;16133655;19;129761;-43
2022/05/28 18:17:56;;;;;;;7.85;1.05;;;;;;;20.47;30.28;101982.47;16124747;19;130724;-42
2022/05/28 18:23:18;;;;;;;2.78;0.52;;;;;;;20.48;30.25;101984.16;16142902;19;129651;-43
2022/05/28 18:28:39;;;;;;;7.50;1.00;;;;;;;20.45;30.65;101970.72;16143917;19;128928;-41
2022/05/28 18:34:01;;;;;;;3.15;0.88;;;;;;;20.43;30.52;101970.13;16148656;19;130624;-42
2022/05/28 18:39:45;;;;;;;4.10;1.20;;;;;;;20.44;30.34;101961.56;16144575;19;129395;-42
2022/05/28 18:45:08;;;;;;;24.55;7.40;;;;;;;20.42;30.55;101958.16;16136722;19;129924;-41
2022/05/28 18:50:29;;;;;;;16.98;7.70;;;;;;;20.43;31.14;101959.03;16139856;19;130650;-44
2022/05/28 18:55:52;;;;;;;16.55;7.63;;;;;;;20.43;30.71;101961.78;16143163;19;129797;-42
2022/05/28 19:01:14;;;;;;;15.07;6.38;;;;;;;20.44;30.78;101961.56;16140006;19;130266;-44
2022/05/28 19:06:42;;;;;;;16.33;5.15;;;;;;;20.45;30.65;101951.28;16136054;19;129948;-41
2022/05/28 19:12:08;;;;;;;16.98;4.60;;;;;;;20.44;30.93;101949.56;16132719;19;130909;-43
2022/05/28 19:17:50;;;;;;;8.80;3.97;;;;;;;20.43;31.24;101956.25;16135625;19;131117;-46
2022/05/28 19:23:13;;;;;;;18.63;3.78;;;;;;;20.43;30.89;101950.69;16138296;19;130198;-48
2022/05/28 19:28:38;;;;;;;12.55;3.55;;;;;;;20.41;31.24;101955.63;16139886;19;130278;-46
2022/05/28 19:34:01;;;;;;;17.98;3.00;;;;;;;20.41;31.46;101955.63;16139218;19;129087;-44
2022/05/28 19:39:22;;;;;;;8.68;2.50;;;;;;;20.42;31.51;101952.59;16137958;19;129696;-45
2022/05/28 19:44:47;;;;;;;12.05;2.42;;;;;;;20.45;31.44;101954.06;16134169;19;130732;-41
2022/05/28 19:50:10;;;;;;;19.77;3.17;;;;;;;20.43;31.56;101954.28;16130833;19;129574;-43
2022/05/28 19:55:31;;;;;;;20.42;3.92;;;;;;;20.40;31.55;101957.53;16129336;19;130005;-44
2022/05/28 20:00:57;;;;;;;19.65;3.78;;;;;;;20.37;31.57;101960.78;16136350;19;131869;-43
2022/05/28 20:06:18;;;;;;;15.68;3.20;;;;;;;20.36;32.08;101969.34;16130159;19;132441;-41
2022/05/28 20:11:40;;;;;;;9.15;3.03;;;;;;;20.36;31.60;101969.34;16134979;19;129940;-43
2022/05/28 20:17:04;;;;;;;24.58;4.03;;;;;;;20.33;31.83;101964.25;16135337;19;129906;-43
2022/05/28 20:22:26;;;;;;;13.43;2.67;;;;;;;20.33;32.12;101961.47;16133707;19;130609;-42
2022/05/28 20:27:49;;;;;;;11.63;2.40;;;;;;;20.33;32.21;101969.81;16131281;19;130505;-42
2022/05/28 20:33:18;;;;;;;7.00;2.67;;;;;;;20.31;32.22;101960.88;16129618;19;130934;-43
2022/05/28 20:38:40;;;;;;;18.45;2.45;;;;;;;20.29;32.26;101964.75;16132862;19;131414;-41
2022/05/28 20:44:03;;;;;;;8.88;1.80;;;;;;;20.28;32.25;101953.84;16134745;19;129893;-40
2022/05/28 20:49:24;;;;;;;7.15;1.85;;;;;;;20.26;32.03;101956.84;16138052;19;131207;-40
2022/05/28 20:54:46;;;;;;;8.00;1.77;;;;;;;20.22;32.41;101952.84;16137985;19;129750;-40
2022/05/28 21:00:10;;;;;;;7.13;1.45;;;;;;;20.21;31.92;101941.97;16137272;19;130443;-40
2022/05/28 21:05:31;;;;;;;6.35;1.50;;;;;;;20.20;31.96;101940.28;16129436;19;130098;-45
2022/05/28 21:10:54;;;;;;;5.10;1.27;;;;;;;20.18;32.11;101943.28;16136614;19;129656;-41
2022/05/28 21:16:24;;;;;;;9.02;1.58;;;;;;;20.16;32.44;101942.66;16138270;19;128820;-41
2022/05/28 21:21:46;;;;;;;;;;;;;;;20.12;32.18;101938.66;16138466;19;130396;-40
2022/05/28 21:32:48;;;;;;;4.88;1.15;;;;;;;20.10;32.39;101938.03;16139718;19;129103;-41
2022/05/28 21:38:11;;;;;;;6.57;1.55;;;;;;;20.09;32.24;101930.78;16136438;19;131554;-45
2022/05/28 21:43:32;;;;;;;3.35;1.02;;;;;;;20.08;32.31;101923.50;16132579;19;129120;-43
2022/05/28 21:48:54;;;;;;;8.38;1.10;;;;;;;20.07;32.20;101914.34;16134154;19;129855;-43
2022/05/28 21:54:19;;;;;;;1.92;0.70;;;;;;;20.08;32.60;101909.63;16143226;19;130226;-42
2022/05/28 21:59:41;;;;;;;4.07;0.77;;;;;;;20.06;32.72;101909.88;16149685;19;129383;-41
2022/05/28 22:05:03;;;;;;;2.08;0.88;;;;;;;20.05;32.55;101901.78;16146555;19;130179;-41
2022/05/28 22:10:25;;;;;;;3.17;0.85;;;;;;;20.05;32.84;101899.00;16148067;19;129393;-43
2022/05/28 22:15:47;;;;;;;2.97;1.02;;;;;;;20.02;32.59;101891.97;16145818;19;129468;-44
2022/05/28 22:21:09;;;;;;;5.28;0.82;;;;;;;20.01;32.78;101889.44;16143766;19;129802;-41
2022/05/28 22:26:31;;;;;;;2.67;0.80;;;;;;;20.00;32.71;101885.78;16143738;19;129166;-44
2022/05/28 22:31:55;;;;;;;3.03;0.73;;;;;;;19.99;32.50;101890.50;16143852;19;130444;-45
2022/05/28 22:37:17;;;;;;;3.15;0.60;;;;;;;19.97;32.86;101884.28;16141848;19;132399;-47
2022/05/28 22:42:39;;;;;;;4.38;0.90;;;;;;;19.97;32.47;101878.75;16140431;19;128983;-45
2022/05/28 22:48:06;;;;;;;1.92;0.73;;;;;;;19.97;32.54;101877.91;16140820;19;130368;-42
2022/05/28 22:53:30;;;;;;;1.25;0.50;;;;;;;19.96;32.93;101879.81;16141705;19;130625;-44
2022/05/28 22:58:52;;;;;;;3.03;0.87;;;;;;;19.94;32.77;101875.59;16139723;19;130728;-40
2022/05/28 23:04:14;;;;;;;4.05;0.63;;;;;;;19.93;32.74;101862.78;16136159;19;130438;-41
2022/05/28 23:09:36;;;;;;;1.50;0.60;;;;;;;19.93;32.60;101852.53;16135612;19;130184;-43
2022/05/28 23:14:58;;;;;;;2.45;0.60;;;;;;;19.93;32.97;101846.13;16138864;19;129796;-45
2022/05/28 23:20:23;;;;;;;2.05;0.60;;;;;;;19.91;32.81;101845.50;16136863;19;129552;-44
2022/05/28 23:25:51;;;;;;;2.78;0.70;;;;;;;19.91;32.84;101837.16;16133803;19;129865;-43
2022/05/28 23:31:16;;;;;;;2.13;0.40;;;;;;;19.91;32.89;101832.47;16138146;19;129688;-48
2022/05/28 23:36:42;;;;;;;2.45;0.70;;;;;;;19.90;32.88;101830.78;16137794;19;129980;-44
2022/05/28 23:42:06;;;;;;;2.03;0.73;;;;;;;19.88;33.15;101827.38;16135154;19;130283;-46
2022/05/28 23:47:29;;;;;;;1.58;0.40;;;;;;;19.88;33.21;101821.81;16131731;19;129713;-45
2022/05/28 23:52:52;;;;;;;2.15;0.57;;;;;;;19.87;32.99;101810.97;16136103;19;130541;-45
2022/05/28 23:58:13;;;;;;;1.60;0.40;;;;;;;19.87;33.19;101805.41;16135027;19;130807;-44
